Tropical Cyclones
[Index]
Main Index Home Page Stock Weather Photos Extreme Storms Discussion Storm News and Storm Chasing Reports Tropical Cyclones / Hurricanes / Typhoons Weather Data and Links Wild Fires / Bushfires Weather Observation Techniques Weather Picture Catalogue Tornado Pictures and Reports Stock Video Footage and DVDs for sale
Season 2005-2006 Tropical Cyclone CARINA Track Map
Season 2005-2006 Summaries (Operational Data): [AU] [SIO] [SPAC] [SH]
<<- Previous TC | 2005-2006 Season | Next TC ->>

click for intensity scale information  Lat/long Grid: Show Hide

 Date Labels: Show Hide

Operational Tropical Cyclone Data : JTWC Advisories

Name: CARINA
Number: 0614

23 Feb 2006 00:00 UTC to 03 Mar 2006 12:00 UTC

    date/time    lat    long     hPa   cat  kts
2006-02-23 00    9.9    81.4    1002         25          
2006-02-23 06   10.5    81.8     999         30          
2006-02-23 12   10.5    81.6     998         30          
2006-02-23 18   10.8    81.4     996    1    35          
2006-02-24 00   11.8    81.7     993    1    40          
2006-02-24 06   11.4    81.4     993    1    40          
2006-02-24 12   11.6    81.1     987    1    45          
2006-02-24 18   12.0    80.6     985    2    50          
2006-02-25 00   12.3    80.3     980    2    50          
2006-02-25 06   12.2    80.5     976    2    55          
2006-02-25 12   12.8    80.0     976    2    55          
2006-02-25 18   13.0    80.2     972    2    60          
2006-02-26 00   13.6    79.8     972    2    60          
2006-02-26 06   13.1    79.6     972    2    60          
2006-02-26 12   13.5    79.7     970    3    65          
2006-02-26 18   14.0    79.8     960    3    75          
2006-02-27 00   14.5    79.8     955    3    80          
2006-02-27 06   14.9    79.9     946    3    85          
2006-02-27 12   15.4    79.7     945    3    85          
2006-02-27 18   15.9    79.5     930    4   100          
2006-02-28 00   16.4    79.0     915    5   110          
2006-02-28 06   16.5    78.6     915    5   110          
2006-02-28 12   16.7    78.2     910    5   115          
2006-02-28 18   16.8    78.0     915    5   110          
2006-03-01 00   16.9    77.9     920    5   110          
2006-03-01 06   17.5    77.8     920    5   110          
2006-03-01 12   17.5    76.6     940    4    90          
2006-03-01 18   17.8    76.3     955    3    75          
2006-03-02 00   18.1    76.0     960    3    70          
2006-03-02 06   19.3    78.0     965    3    70          
2006-03-02 12   19.5    77.0     980    2    55          
2006-03-02 18   19.5    77.1     988    1    40          
2006-03-03 00   18.6    77.7     994    1    40          
2006-03-03 06   18.9    78.7     997    1    35          
2006-03-03 12   19.2    78.8    1000         25          
Winds are 10-min average.

Tropical cyclone tracks developed by Michael Bath using operational warnings and advisories and Google Maps.


[Australian Severe Weather index] [Copyright Notice] [Email Contacts] [Search This Site] [Privacy Policy]
Document: tropical_cyclone_carina.htm Updated: 28 May 2013